sensor_id;sensor_type;location;lat;lon;timestamp;pressure;altitude;pressure_sealevel;temperature;humidity
10466;BME280;5280;42.600;23.556;2022-09-13T00:01:24;93258.28;;;14.44;88.56
10466;BME280;5280;42.600;23.556;2022-09-13T00:03:52;93257.00;;;14.48;88.65
10466;BME280;5280;42.600;23.556;2022-09-13T00:06:20;93254.63;;;14.45;89.14
10466;BME280;5280;42.600;23.556;2022-09-13T00:08:47;93251.38;;;14.51;88.60
10466;BME280;5280;42.600;23.556;2022-09-13T00:11:16;93239.94;;;14.41;89.26
10466;BME280;5280;42.600;23.556;2022-09-13T00:13:43;93256.03;;;14.49;88.61
10466;BME280;5280;42.600;23.556;2022-09-13T00:16:12;93258.50;;;14.50;88.96
10466;BME280;5280;42.600;23.556;2022-09-13T00:18:39;93247.03;;;14.50;89.34
10466;BME280;5280;42.600;23.556;2022-09-13T00:21:09;93235.19;;;14.44;89.32
10466;BME280;5280;42.600;23.556;2022-09-13T00:23:37;93239.81;;;14.42;89.64
10466;BME280;5280;42.600;23.556;2022-09-13T00:26:05;93232.28;;;14.38;90.28
10466;BME280;5280;42.600;23.556;2022-09-13T00:28:32;93232.69;;;14.33;90.24
10466;BME280;5280;42.600;23.556;2022-09-13T00:31:00;93234.38;;;14.34;90.87
10466;BME280;5280;42.600;23.556;2022-09-13T00:33:27;93230.31;;;14.30;91.57
10466;BME280;5280;42.600;23.556;2022-09-13T00:35:54;93218.16;;;14.28;91.06
10466;BME280;5280;42.600;23.556;2022-09-13T00:38:22;93223.34;;;14.29;91.43
10466;BME280;5280;42.600;23.556;2022-09-13T00:40:49;93186.84;;;13.94;91.81
10466;BME280;5280;42.600;23.556;2022-09-13T00:43:18;93208.13;;;14.21;92.02
10466;BME280;5280;42.600;23.556;2022-09-13T00:45:45;93217.19;;;14.29;91.82
10466;BME280;5280;42.600;23.556;2022-09-13T00:48:17;93210.50;;;14.25;91.82
10466;BME280;5280;42.600;23.556;2022-09-13T00:50:52;93223.31;;;14.39;91.83
10466;BME280;5280;42.600;23.556;2022-09-13T00:53:26;93221.66;;;14.38;92.60
10466;BME280;5280;42.600;23.556;2022-09-13T00:55:58;93149.53;;;13.86;92.98
10466;BME280;5280;42.600;23.556;2022-09-13T00:58:31;93181.25;;;13.97;92.85
10466;BME280;5280;42.600;23.556;2022-09-13T01:01:00;93181.59;;;14.12;93.73
10466;BME280;5280;42.600;23.556;2022-09-13T01:03:31;93182.34;;;14.04;93.78
10466;BME280;5280;42.600;23.556;2022-09-13T01:06:01;93208.22;;;14.30;94.72
10466;BME280;5280;42.600;23.556;2022-09-13T01:08:31;93217.59;;;14.34;94.81
10466;BME280;5280;42.600;23.556;2022-09-13T01:10:59;93211.00;;;14.38;94.96
10466;BME280;5280;42.600;23.556;2022-09-13T01:13:32;93219.81;;;14.38;95.23
10466;BME280;5280;42.600;23.556;2022-09-13T01:16:01;93183.22;;;14.22;95.01
10466;BME280;5280;42.600;23.556;2022-09-13T01:18:27;93193.94;;;14.31;94.91
10466;BME280;5280;42.600;23.556;2022-09-13T01:21:14;93192.25;;;14.39;94.57
10466;BME280;5280;42.600;23.556;2022-09-13T01:27:01;93205.19;;;14.52;94.82
10466;BME280;5280;42.600;23.556;2022-09-13T01:30:12;93199.34;;;14.48;95.51
10466;BME280;5280;42.600;23.556;2022-09-13T01:32:52;93207.84;;;14.52;95.20
10466;BME280;5280;42.600;23.556;2022-09-13T01:35:27;93206.03;;;14.52;94.92
10466;BME280;5280;42.600;23.556;2022-09-13T01:38:08;93201.25;;;14.56;94.80
10466;BME280;5280;42.600;23.556;2022-09-13T01:40:50;93187.41;;;14.52;93.91
10466;BME280;5280;42.600;23.556;2022-09-13T01:43:30;93196.69;;;14.66;94.57
10466;BME280;5280;42.600;23.556;2022-09-13T01:46:05;93202.72;;;14.68;94.29
10466;BME280;5280;42.600;23.556;2022-09-13T01:48:51;93205.59;;;14.75;94.31
10466;BME280;5280;42.600;23.556;2022-09-13T01:51:28;93155.25;;;14.46;93.99
10466;BME280;5280;42.600;23.556;2022-09-13T01:54:12;93183.19;;;14.77;93.99
10466;BME280;5280;42.600;23.556;2022-09-13T01:56:48;93199.78;;;14.89;94.21
10466;BME280;5280;42.600;23.556;2022-09-13T01:59:20;93158.03;;;14.72;94.02
10466;BME280;5280;42.600;23.556;2022-09-13T02:01:54;93187.00;;;14.92;92.77
10466;BME280;5280;42.600;23.556;2022-09-13T02:04:26;93160.69;;;14.72;91.55
10466;BME280;5280;42.600;23.556;2022-09-13T02:07:00;93199.38;;;15.01;91.07
10466;BME280;5280;42.600;23.556;2022-09-13T02:09:33;93191.41;;;15.01;91.25
10466;BME280;5280;42.600;23.556;2022-09-13T02:12:04;93189.72;;;15.00;91.54
10466;BME280;5280;42.600;23.556;2022-09-13T02:14:36;93195.22;;;14.99;91.13
10466;BME280;5280;42.600;23.556;2022-09-13T02:17:07;93184.09;;;14.86;91.26
10466;BME280;5280;42.600;23.556;2022-09-13T02:19:40;93186.16;;;14.74;91.84
10466;BME280;5280;42.600;23.556;2022-09-13T02:22:10;93188.19;;;14.62;92.48
10466;BME280;5280;42.600;23.556;2022-09-13T02:24:42;93185.97;;;14.58;92.48
10466;BME280;5280;42.600;23.556;2022-09-13T02:27:13;93185.47;;;14.54;92.68
10466;BME280;5280;42.600;23.556;2022-09-13T02:29:44;93193.31;;;14.46;93.30
10466;BME280;5280;42.600;23.556;2022-09-13T02:32:20;93164.75;;;14.21;93.78
10466;BME280;5280;42.600;23.556;2022-09-13T02:34:51;93196.16;;;14.35;93.91
10466;BME280;5280;42.600;23.556;2022-09-13T02:37:22;93188.63;;;14.31;93.61
10466;BME280;5280;42.600;23.556;2022-09-13T02:39:52;93175.06;;;14.34;93.70
10466;BME280;5280;42.600;23.556;2022-09-13T02:42:24;93185.47;;;14.45;93.91
10466;BME280;5280;42.600;23.556;2022-09-13T02:44:53;93183.00;;;14.43;93.27
10466;BME280;5280;42.600;23.556;2022-09-13T02:47:45;93172.09;;;14.37;92.93
10466;BME280;5280;42.600;23.556;2022-09-13T02:50:33;93194.03;;;14.48;92.87
10466;BME280;5280;42.600;23.556;2022-09-13T02:53:04;93183.28;;;14.40;92.49
10466;BME280;5280;42.600;23.556;2022-09-13T02:55:43;93199.47;;;14.47;92.70
10466;BME280;5280;42.600;23.556;2022-09-13T02:58:18;93202.97;;;14.47;92.77
10466;BME280;5280;42.600;23.556;2022-09-13T03:00:48;93194.75;;;14.41;93.24
10466;BME280;5280;42.600;23.556;2022-09-13T03:03:16;93187.91;;;14.38;93.17
10466;BME280;5280;42.600;23.556;2022-09-13T03:05:43;93149.44;;;14.05;93.95
10466;BME280;5280;42.600;23.556;2022-09-13T03:08:13;93191.97;;;14.33;93.62
10466;BME280;5280;42.600;23.556;2022-09-13T03:10:50;93160.41;;;14.20;93.62
10466;BME280;5280;42.600;23.556;2022-09-13T03:13:39;93196.06;;;14.27;94.10
10466;BME280;5280;42.600;23.556;2022-09-13T03:16:22;93179.63;;;14.14;94.36
10466;BME280;5280;42.600;23.556;2022-09-13T03:19:03;93184.00;;;14.05;94.81
10466;BME280;5280;42.600;23.556;2022-09-13T03:21:50;93187.97;;;13.92;96.34
10466;BME280;5280;42.600;23.556;2022-09-13T03:24:23;93193.59;;;13.89;97.41
10466;BME280;5280;42.600;23.556;2022-09-13T03:27:02;93198.28;;;13.95;97.35
10466;BME280;5280;42.600;23.556;2022-09-13T03:29:38;93175.16;;;13.77;98.27
10466;BME280;5280;42.600;23.556;2022-09-13T03:32:17;93190.81;;;13.80;99.23
10466;BME280;5280;42.600;23.556;2022-09-13T03:34:54;93146.91;;;13.49;98.66
10466;BME280;5280;42.600;23.556;2022-09-13T03:37:31;93153.56;;;13.63;99.73
10466;BME280;5280;42.600;23.556;2022-09-13T03:40:03;93191.38;;;13.84;99.18
10466;BME280;5280;42.600;23.556;2022-09-13T03:42:36;93182.16;;;13.78;99.51
10466;BME280;5280;42.600;23.556;2022-09-13T03:45:08;93164.19;;;13.63;100.00
10466;BME280;5280;42.600;23.556;2022-09-13T03:47:39;93177.47;;;13.63;100.00
10466;BME280;5280;42.600;23.556;2022-09-13T03:50:15;93192.66;;;13.70;100.00
10466;BME280;5280;42.600;23.556;2022-09-13T03:52:44;93190.41;;;13.75;100.00
10466;BME280;5280;42.600;23.556;2022-09-13T03:55:12;93199.06;;;13.77;100.00
10466;BME280;5280;42.600;23.556;2022-09-13T03:57:39;93200.91;;;13.67;100.00
10466;BME280;5280;42.600;23.556;2022-09-13T04:00:07;93198.97;;;13.69;100.00
10466;BME280;5280;42.600;23.556;2022-09-13T04:02:34;93198.53;;;13.74;100.00
10466;BME280;5280;42.600;23.556;2022-09-13T04:05:01;93199.38;;;13.74;99.61
10466;BME280;5280;42.600;23.556;2022-09-13T04:07:29;93210.00;;;13.74;100.00
10466;BME280;5280;42.600;23.556;2022-09-13T04:09:56;93210.69;;;13.76;99.47
10466;BME280;5280;42.600;23.556;2022-09-13T04:12:23;93209.00;;;13.75;99.59
10466;BME280;5280;42.600;23.556;2022-09-13T04:14:50;93127.28;;;13.23;98.91
10466;BME280;5280;42.600;23.556;2022-09-13T04:17:17;93210.41;;;13.79;97.93
10466;BME280;5280;42.600;23.556;2022-09-13T04:19:44;93202.03;;;13.74;96.41
10466;BME280;5280;42.600;23.556;2022-09-13T04:22:12;93205.34;;;13.76;96.31
10466;BME280;5280;42.600;23.556;2022-09-13T04:24:40;93215.97;;;13.76;96.72
10466;BME280;5280;42.600;23.556;2022-09-13T04:27:08;93171.88;;;13.56;96.32
10466;BME280;5280;42.600;23.556;2022-09-13T04:29:35;93196.72;;;13.74;94.92
10466;BME280;5280;42.600;23.556;2022-09-13T04:32:02;93170.81;;;13.49;95.12
10466;BME280;5280;42.600;23.556;2022-09-13T04:34:29;93218.63;;;13.76;94.84
10466;BME280;5280;42.600;23.556;2022-09-13T04:36:56;93212.91;;;13.71;94.54
10466;BME280;5280;42.600;23.556;2022-09-13T04:39:23;93219.22;;;13.70;95.49
10466;BME280;5280;42.600;23.556;2022-09-13T04:41:51;93217.16;;;13.64;96.60
10466;BME280;5280;42.600;23.556;2022-09-13T04:44:19;93222.47;;;13.64;97.30
10466;BME280;5280;42.600;23.556;2022-09-13T04:46:48;93229.72;;;13.62;98.12
10466;BME280;5280;42.600;23.556;2022-09-13T04:49:16;93223.31;;;13.55;98.57
10466;BME280;5280;42.600;23.556;2022-09-13T04:51:44;93221.50;;;13.56;99.13
10466;BME280;5280;42.600;23.556;2022-09-13T04:54:12;93208.00;;;13.40;99.90
10466;BME280;5280;42.600;23.556;2022-09-13T04:56:39;93223.59;;;13.52;100.00
10466;BME280;5280;42.600;23.556;2022-09-13T04:59:07;93244.41;;;13.57;100.00
10466;BME280;5280;42.600;23.556;2022-09-13T05:01:35;93234.06;;;13.63;100.00
10466;BME280;5280;42.600;23.556;2022-09-13T05:04:02;93237.81;;;13.61;100.00
10466;BME280;5280;42.600;23.556;2022-09-13T05:06:29;93238.41;;;13.64;100.00
10466;BME280;5280;42.600;23.556;2022-09-13T05:08:56;93231.81;;;13.68;100.00
10466;BME280;5280;42.600;23.556;2022-09-13T05:11:24;93234.72;;;13.75;100.00
10466;BME280;5280;42.600;23.556;2022-09-13T05:13:53;93235.41;;;13.77;100.00
10466;BME280;5280;42.600;23.556;2022-09-13T05:16:21;93238.09;;;13.67;100.00
10466;BME280;5280;42.600;23.556;2022-09-13T05:18:49;93238.19;;;13.85;100.00
10466;BME280;5280;42.600;23.556;2022-09-13T05:21:16;93241.41;;;13.89;100.00
10466;BME280;5280;42.600;23.556;2022-09-13T05:23:44;93244.75;;;13.91;100.00
10466;BME280;5280;42.600;23.556;2022-09-13T05:26:11;93217.09;;;13.84;100.00
10466;BME280;5280;42.600;23.556;2022-09-13T05:28:37;93228.09;;;13.98;100.00
10466;BME280;5280;42.600;23.556;2022-09-13T05:31:06;93233.09;;;14.01;100.00
10466;BME280;5280;42.600;23.556;2022-09-13T05:33:36;93242.41;;;14.15;100.00
10466;BME280;5280;42.600;23.556;2022-09-13T05:36:04;93243.50;;;14.22;100.00
10466;BME280;5280;42.600;23.556;2022-09-13T05:38:31;93233.13;;;14.29;100.00
10466;BME280;5280;42.600;23.556;2022-09-13T05:41:00;93245.28;;;14.41;99.12
10466;BME280;5280;42.600;23.556;2022-09-13T05:43:29;93203.44;;;14.33;98.24
10466;BME280;5280;42.600;23.556;2022-09-13T05:46:00;93244.72;;;14.64;97.19
10466;BME280;5280;42.600;23.556;2022-09-13T05:48:27;93240.16;;;14.75;96.53
10466;BME280;5280;42.600;23.556;2022-09-13T05:50:55;93240.56;;;14.80;94.94
10466;BME280;5280;42.600;23.556;2022-09-13T05:53:23;93245.66;;;14.91;93.54
10466;BME280;5280;42.600;23.556;2022-09-13T05:55:49;93197.00;;;14.63;92.59
10466;BME280;5280;42.600;23.556;2022-09-13T05:58:16;93251.38;;;14.96;92.48
10466;BME280;5280;42.600;23.556;2022-09-13T06:00:43;93197.47;;;14.76;91.86
10466;BME280;5280;42.600;23.556;2022-09-13T06:03:10;93182.94;;;14.71;91.13
10466;BME280;5280;42.600;23.556;2022-09-13T06:05:36;93243.25;;;15.15;92.00
10466;BME280;5280;42.600;23.556;2022-09-13T06:08:05;93247.00;;;15.22;91.67
10466;BME280;5280;42.600;23.556;2022-09-13T06:10:32;93245.69;;;15.26;90.83
10466;BME280;5280;42.600;23.556;2022-09-13T06:12:59;93184.00;;;14.95;89.81
10466;BME280;5280;42.600;23.556;2022-09-13T06:15:26;93213.69;;;15.18;89.29
10466;BME280;5280;42.600;23.556;2022-09-13T06:17:53;93247.19;;;15.46;88.55
10466;BME280;5280;42.600;23.556;2022-09-13T06:20:19;93209.78;;;15.30;88.72
10466;BME280;5280;42.600;23.556;2022-09-13T06:22:46;93249.34;;;15.61;88.53
10466;BME280;5280;42.600;23.556;2022-09-13T06:25:15;93247.66;;;15.60;87.76
10466;BME280;5280;42.600;23.556;2022-09-13T06:27:42;93255.03;;;15.66;87.49
10466;BME280;5280;42.600;23.556;2022-09-13T06:30:09;93250.09;;;15.71;86.97
10466;BME280;5280;42.600;23.556;2022-09-13T06:32:37;93254.66;;;15.78;87.99
10466;BME280;5280;42.600;23.556;2022-09-13T06:35:05;93244.47;;;15.74;85.42
10466;BME280;5280;42.600;23.556;2022-09-13T06:37:32;93266.81;;;15.81;86.37
10466;BME280;5280;42.600;23.556;2022-09-13T06:39:59;93261.84;;;15.86;84.81
10466;BME280;5280;42.600;23.556;2022-09-13T06:42:27;93263.53;;;15.87;86.89
10466;BME280;5280;42.600;23.556;2022-09-13T06:44:54;93261.38;;;15.90;85.48
10466;BME280;5280;42.600;23.556;2022-09-13T06:47:20;93202.00;;;15.55;85.25
10466;BME280;5280;42.600;23.556;2022-09-13T06:49:47;93275.59;;;15.99;84.47
10466;BME280;5280;42.600;23.556;2022-09-13T06:52:14;93267.81;;;16.06;83.62
10466;BME280;5280;42.600;23.556;2022-09-13T06:54:41;93203.28;;;15.68;83.12
10466;BME280;5280;42.600;23.556;2022-09-13T06:57:08;93271.72;;;16.19;82.40
10466;BME280;5280;42.600;23.556;2022-09-13T06:59:36;93270.91;;;16.19;81.16
10466;BME280;5280;42.600;23.556;2022-09-13T07:02:03;93228.16;;;16.03;82.79
10466;BME280;5280;42.600;23.556;2022-09-13T07:04:30;93279.88;;;16.44;82.18
10466;BME280;5280;42.600;23.556;2022-09-13T07:06:58;93282.59;;;16.52;78.64
10466;BME280;5280;42.600;23.556;2022-09-13T07:09:25;93277.72;;;16.47;77.46
10466;BME280;5280;42.600;23.556;2022-09-13T07:11:53;93274.81;;;16.58;78.22
10466;BME280;5280;42.600;23.556;2022-09-13T07:14:21;93276.19;;;16.70;77.07
10466;BME280;5280;42.600;23.556;2022-09-13T07:16:50;93256.66;;;16.62;74.96
10466;BME280;5280;42.600;23.556;2022-09-13T07:19:18;93276.69;;;16.74;74.99
10466;BME280;5280;42.600;23.556;2022-09-13T07:21:47;93283.06;;;16.81;74.79
10466;BME280;5280;42.600;23.556;2022-09-13T07:24:14;93273.56;;;16.78;74.94
10466;BME280;5280;42.600;23.556;2022-09-13T07:26:42;93269.94;;;16.96;73.56
10466;BME280;5280;42.600;23.556;2022-09-13T07:29:11;93268.47;;;17.01;71.32
10466;BME280;5280;42.600;23.556;2022-09-13T07:31:40;93280.53;;;17.21;72.94
10466;BME280;5280;42.600;23.556;2022-09-13T07:34:12;93285.09;;;17.37;71.05
10466;BME280;5280;42.600;23.556;2022-09-13T07:36:39;93289.09;;;17.41;71.03
10466;BME280;5280;42.600;23.556;2022-09-13T07:39:07;93285.59;;;17.57;70.15
10466;BME280;5280;42.600;23.556;2022-09-13T07:41:34;93218.59;;;17.26;67.51
10466;BME280;5280;42.600;23.556;2022-09-13T07:44:01;93291.50;;;17.85;67.02
10466;BME280;5280;42.600;23.556;2022-09-13T07:46:30;93294.66;;;17.88;64.85
10466;BME280;5280;42.600;23.556;2022-09-13T07:48:59;93284.81;;;17.73;65.30
10466;BME280;5280;42.600;23.556;2022-09-13T07:51:29;93296.69;;;17.86;65.16
10466;BME280;5280;42.600;23.556;2022-09-13T07:53:57;93249.56;;;17.61;65.86
10466;BME280;5280;42.600;23.556;2022-09-13T07:56:26;93245.22;;;17.68;65.45
10466;BME280;5280;42.600;23.556;2022-09-13T07:58:54;93301.34;;;18.17;62.19
10466;BME280;5280;42.600;23.556;2022-09-13T08:01:23;93299.84;;;18.14;64.11
10466;BME280;5280;42.600;23.556;2022-09-13T08:03:51;93299.69;;;18.16;62.37
10466;BME280;5280;42.600;23.556;2022-09-13T08:06:18;93295.50;;;18.21;57.66
10466;BME280;5280;42.600;23.556;2022-09-13T08:08:47;93295.66;;;18.28;58.70
10466;BME280;5280;42.600;23.556;2022-09-13T08:11:16;93293.31;;;18.33;58.62
10466;BME280;5280;42.600;23.556;2022-09-13T08:13:44;93301.16;;;18.42;57.89
10466;BME280;5280;42.600;23.556;2022-09-13T08:16:11;93279.22;;;18.47;56.31
10466;BME280;5280;42.600;23.556;2022-09-13T08:18:42;93289.91;;;18.63;56.28
10466;BME280;5280;42.600;23.556;2022-09-13T08:21:09;93288.00;;;18.80;55.30
10466;BME280;5280;42.600;23.556;2022-09-13T08:23:36;93304.53;;;18.91;55.27
10466;BME280;5280;42.600;23.556;2022-09-13T08:26:05;93251.41;;;18.72;56.06
10466;BME280;5280;42.600;23.556;2022-09-13T08:28:34;93301.28;;;19.12;51.56
10466;BME280;5280;42.600;23.556;2022-09-13T08:31:05;93290.69;;;19.19;52.82
10466;BME280;5280;42.600;23.556;2022-09-13T08:33:33;93296.97;;;19.34;54.89
10466;BME280;5280;42.600;23.556;2022-09-13T08:36:00;93294.59;;;19.39;54.03
10466;BME280;5280;42.600;23.556;2022-09-13T08:38:28;93292.69;;;19.56;53.73
10466;BME280;5280;42.600;23.556;2022-09-13T08:40:57;93294.97;;;19.67;53.91
10466;BME280;5280;42.600;23.556;2022-09-13T08:43:38;93242.63;;;19.48;52.99
10466;BME280;5280;42.600;23.556;2022-09-13T08:46:10;93284.66;;;19.78;53.86
10466;BME280;5280;42.600;23.556;2022-09-13T08:48:42;93280.78;;;19.81;53.64
10466;BME280;5280;42.600;23.556;2022-09-13T08:51:21;93286.63;;;20.07;52.11
10466;BME280;5280;42.600;23.556;2022-09-13T08:53:51;93286.06;;;20.12;53.80
10466;BME280;5280;42.600;23.556;2022-09-13T08:56:20;93286.56;;;20.30;51.46
10466;BME280;5280;42.600;23.556;2022-09-13T08:59:04;93289.13;;;20.32;49.91
10466;BME280;5280;42.600;23.556;2022-09-13T09:01:39;93287.59;;;20.29;46.92
10466;BME280;5280;42.600;23.556;2022-09-13T09:04:14;93264.91;;;20.17;50.86
10466;BME280;5280;42.600;23.556;2022-09-13T09:06:46;93253.13;;;20.18;49.47
10466;BME280;5280;42.600;23.556;2022-09-13T09:09:15;93238.38;;;19.99;48.93
10466;BME280;5280;42.600;23.556;2022-09-13T09:11:48;93282.91;;;20.31;49.41
10466;BME280;5280;42.600;23.556;2022-09-13T09:14:22;93277.53;;;20.08;51.33
10466;BME280;5280;42.600;23.556;2022-09-13T09:16:53;93284.69;;;20.16;49.81
10466;BME280;5280;42.600;23.556;2022-09-13T09:19:25;93281.06;;;20.09;50.21
10466;BME280;5280;42.600;23.556;2022-09-13T09:21:54;93280.03;;;20.10;50.42
10466;BME280;5280;42.600;23.556;2022-09-13T09:24:23;93276.22;;;20.04;50.32
10466;BME280;5280;42.600;23.556;2022-09-13T09:26:52;93254.66;;;19.98;49.86
10466;BME280;5280;42.600;23.556;2022-09-13T09:29:25;93286.00;;;20.20;50.88
10466;BME280;5280;42.600;23.556;2022-09-13T09:32:01;93279.41;;;20.23;48.18
10466;BME280;5280;42.600;23.556;2022-09-13T09:34:47;93256.06;;;20.08;48.44
10466;BME280;5280;42.600;23.556;2022-09-13T09:37:19;93242.22;;;20.19;46.52
10466;BME280;5280;42.600;23.556;2022-09-13T09:39:47;93229.75;;;20.27;48.62
10466;BME280;5280;42.600;23.556;2022-09-13T09:42:15;93255.91;;;20.62;44.60
10466;BME280;5280;42.600;23.556;2022-09-13T09:44:47;93251.00;;;20.66;46.36
10466;BME280;5280;42.600;23.556;2022-09-13T09:47:18;93219.88;;;20.42;46.72
10466;BME280;5280;42.600;23.556;2022-09-13T09:49:47;93217.28;;;20.48;47.01
10466;BME280;5280;42.600;23.556;2022-09-13T09:52:37;93250.81;;;20.82;46.69
10466;BME280;5280;42.600;23.556;2022-09-13T09:55:17;93250.53;;;20.77;47.27
10466;BME280;5280;42.600;23.556;2022-09-13T09:57:50;93247.03;;;20.76;47.53
10466;BME280;5280;42.600;23.556;2022-09-13T10:00:20;93246.47;;;20.66;45.48
10466;BME280;5280;42.600;23.556;2022-09-13T10:02:48;93238.19;;;20.68;46.17
10466;BME280;5280;42.600;23.556;2022-09-13T10:05:18;93242.94;;;20.66;46.55
10466;BME280;5280;42.600;23.556;2022-09-13T10:07:53;93184.84;;;20.20;46.03
10466;BME280;5280;42.600;23.556;2022-09-13T10:10:24;93186.09;;;19.95;47.75
10466;BME280;5280;42.600;23.556;2022-09-13T10:12:53;93238.56;;;20.35;45.85
10466;BME280;5280;42.600;23.556;2022-09-13T10:15:25;93194.56;;;20.07;46.10
10466;BME280;5280;42.600;23.556;2022-09-13T10:18:01;93174.47;;;19.65;46.24
10466;BME280;5280;42.600;23.556;2022-09-13T10:20:30;93242.47;;;20.10;46.08
10466;BME280;5280;42.600;23.556;2022-09-13T10:23:18;93244.84;;;19.90;47.92
10466;BME280;5280;42.600;23.556;2022-09-13T10:25:56;93248.84;;;19.71;47.50
10466;BME280;5280;42.600;23.556;2022-09-13T10:28:25;93240.25;;;19.76;46.56
10466;BME280;5280;42.600;23.556;2022-09-13T10:30:56;93158.09;;;19.38;46.64
10466;BME280;5280;42.600;23.556;2022-09-13T10:33:27;93222.63;;;19.82;46.82
10466;BME280;5280;42.600;23.556;2022-09-13T10:35:57;93228.44;;;19.85;46.02
10466;BME280;5280;42.600;23.556;2022-09-13T10:38:29;93230.72;;;19.96;47.19
10466;BME280;5280;42.600;23.556;2022-09-13T10:40:57;93214.59;;;19.96;43.95
10466;BME280;5280;42.600;23.556;2022-09-13T10:43:28;93222.75;;;20.03;44.75
10466;BME280;5280;42.600;23.556;2022-09-13T10:45:57;93213.97;;;20.09;46.03
10466;BME280;5280;42.600;23.556;2022-09-13T10:48:28;93217.66;;;20.08;45.62
10466;BME280;5280;42.600;23.556;2022-09-13T10:51:06;93214.47;;;20.27;44.94
10466;BME280;5280;42.600;23.556;2022-09-13T10:53:39;93212.13;;;20.32;45.56
10466;BME280;5280;42.600;23.556;2022-09-13T10:56:18;93214.53;;;20.42;45.08
10466;BME280;5280;42.600;23.556;2022-09-13T10:58:48;93212.19;;;20.53;47.09
10466;BME280;5280;42.600;23.556;2022-09-13T11:01:30;93199.97;;;20.66;46.18
10466;BME280;5280;42.600;23.556;2022-09-13T11:04:28;93200.69;;;20.74;41.95
10466;BME280;5280;42.600;23.556;2022-09-13T11:07:15;93195.16;;;20.76;43.18
10466;BME280;5280;42.600;23.556;2022-09-13T11:09:54;93185.53;;;20.67;42.85
10466;BME280;5280;42.600;23.556;2022-09-13T11:12:30;93185.53;;;20.67;43.37
10466;BME280;5280;42.600;23.556;2022-09-13T11:15:12;93196.00;;;20.76;42.38
10466;BME280;5280;42.600;23.556;2022-09-13T11:18:16;93199.69;;;20.75;43.38
10466;BME280;5280;42.600;23.556;2022-09-13T11:20:54;93197.91;;;20.82;44.02
10466;BME280;5280;42.600;23.556;2022-09-13T11:23:42;93189.03;;;20.82;46.78
10466;BME280;5280;42.600;23.556;2022-09-13T11:26:29;93191.59;;;20.90;43.40
10466;BME280;5280;42.600;23.556;2022-09-13T11:29:08;93190.78;;;20.89;43.71
10466;BME280;5280;42.600;23.556;2022-09-13T11:31:42;93182.72;;;20.89;43.67
10466;BME280;5280;42.600;23.556;2022-09-13T11:34:29;93191.13;;;21.01;42.36
10466;BME280;5280;42.600;23.556;2022-09-13T11:37:12;93169.50;;;21.09;43.63
10466;BME280;5280;42.600;23.556;2022-09-13T11:39:47;93134.34;;;20.89;43.15
10466;BME280;5280;42.600;23.556;2022-09-13T11:42:29;93176.72;;;21.23;41.05
10466;BME280;5280;42.600;23.556;2022-09-13T11:45:22;93144.16;;;20.97;40.99
10466;BME280;5280;42.600;23.556;2022-09-13T11:48:12;93180.91;;;21.11;42.65
10466;BME280;5280;42.600;23.556;2022-09-13T11:50:50;93172.94;;;21.03;42.46
10466;BME280;5280;42.600;23.556;2022-09-13T11:53:38;93180.38;;;21.16;43.58
10466;BME280;5280;42.600;23.556;2022-09-13T11:56:12;93164.44;;;21.14;42.14
10466;BME280;5280;42.600;23.556;2022-09-13T11:58:45;93174.22;;;21.07;42.14
10466;BME280;5280;42.600;23.556;2022-09-13T12:01:18;93180.25;;;21.09;42.32
10466;BME280;5280;42.600;23.556;2022-09-13T12:03:51;93175.28;;;21.06;42.53
10466;BME280;5280;42.600;23.556;2022-09-13T12:06:25;93175.19;;;20.99;43.37
10466;BME280;5280;42.600;23.556;2022-09-13T12:08:55;93171.31;;;21.02;43.18
10466;BME280;5280;42.600;23.556;2022-09-13T12:11:27;93161.56;;;21.01;43.49
10466;BME280;5280;42.600;23.556;2022-09-13T12:13:58;93168.50;;;21.10;41.82
10466;BME280;5280;42.600;23.556;2022-09-13T12:16:30;93174.00;;;21.02;42.17
10466;BME280;5280;42.600;23.556;2022-09-13T12:19:00;93153.44;;;20.94;43.17
10466;BME280;5280;42.600;23.556;2022-09-13T12:21:34;93148.72;;;20.96;42.38
10466;BME280;5280;42.600;23.556;2022-09-13T12:24:05;93157.03;;;21.01;43.55
10466;BME280;5280;42.600;23.556;2022-09-13T12:26:40;93138.94;;;21.10;41.40
10466;BME280;5280;42.600;23.556;2022-09-13T12:29:13;93142.63;;;21.09;40.32
10466;BME280;5280;42.600;23.556;2022-09-13T12:31:42;93166.63;;;21.25;41.99
10466;BME280;5280;42.600;23.556;2022-09-13T12:34:16;93162.25;;;21.24;41.22
10466;BME280;5280;42.600;23.556;2022-09-13T12:37:03;93160.81;;;21.22;43.40
10466;BME280;5280;42.600;23.556;2022-09-13T12:40:01;93164.38;;;21.29;42.29
10466;BME280;5280;42.600;23.556;2022-09-13T12:45:40;93144.63;;;21.36;43.59
10466;BME280;5280;42.600;23.556;2022-09-13T12:51:54;93154.84;;;21.26;42.43
10466;BME280;5280;42.600;23.556;2022-09-13T12:57:34;93151.97;;;21.13;42.04
10466;BME280;5280;42.600;23.556;2022-09-13T13:00:18;93153.00;;;21.12;41.55
10466;BME280;5280;42.600;23.556;2022-09-13T13:02:52;93156.38;;;20.99;41.55
10466;BME280;5280;42.600;23.556;2022-09-13T13:05:25;93139.16;;;20.94;43.08
10466;BME280;5280;42.600;23.556;2022-09-13T13:07:57;93108.06;;;20.85;41.67
10466;BME280;5280;42.600;23.556;2022-09-13T13:10:28;93109.78;;;20.71;42.38
10466;BME280;5280;42.600;23.556;2022-09-13T13:13:08;93142.16;;;20.84;43.03
10466;BME280;5280;42.600;23.556;2022-09-13T13:15:57;93155.19;;;20.87;42.32
10466;BME280;5280;42.600;23.556;2022-09-13T13:18:27;93162.72;;;20.92;41.91
10466;BME280;5280;42.600;23.556;2022-09-13T13:26:55;93169.72;;;20.93;43.17
10466;BME280;5280;42.600;23.556;2022-09-13T13:29:26;93149.09;;;20.79;41.92
10466;BME280;5280;42.600;23.556;2022-09-13T13:32:11;93160.22;;;20.76;43.02
10466;BME280;5280;42.600;23.556;2022-09-13T13:34:42;93167.44;;;20.90;43.28
10466;BME280;5280;42.600;23.556;2022-09-13T13:37:40;93165.78;;;20.74;42.73
10466;BME280;5280;42.600;23.556;2022-09-13T13:40:25;93171.44;;;20.79;43.59
10466;BME280;5280;42.600;23.556;2022-09-13T13:43:29;93171.91;;;20.68;43.34
10466;BME280;5280;42.600;23.556;2022-09-13T13:46:25;93173.84;;;20.59;43.76